createdAt,value
2023-11-09T00:00:10.600Z,100249.00
2023-11-09T00:02:38.163Z,100245.84
2023-11-09T00:05:09.178Z,100242.88
2023-11-09T00:07:36.491Z,100245.84
2023-11-09T00:10:07.893Z,100247.56
2023-11-09T00:12:35.454Z,100244.06
2023-11-09T00:15:04.226Z,100242.41
2023-11-09T00:17:31.811Z,100249.34
2023-11-09T00:19:59.149Z,100241.56
2023-11-09T00:22:27.012Z,100243.78
2023-11-09T00:24:54.617Z,100249.53
2023-11-09T00:27:22.215Z,100230.91
2023-11-09T00:29:49.591Z,100223.75
2023-11-09T00:32:17.541Z,100226.94
2023-11-09T00:34:45.336Z,100231.41
2023-11-09T00:37:12.798Z,100230.72
2023-11-09T00:39:40.854Z,100220.81
2023-11-09T00:42:08.137Z,100224.53
2023-11-09T00:44:35.911Z,100219.38
2023-11-09T00:47:05.215Z,100218.84
2023-11-09T00:49:32.651Z,100231.28
2023-11-09T00:52:00.170Z,100224.00
2023-11-09T00:54:27.729Z,100226.97
2023-11-09T00:56:55.018Z,100221.31
2023-11-09T00:59:22.296Z,100224.59
2023-11-09T01:01:49.822Z,100223.78
2023-11-09T01:04:17.453Z,100226.34
2023-11-09T01:06:44.741Z,100229.69
2023-11-09T01:09:12.808Z,100229.75
2023-11-09T01:11:41.544Z,100224.97
2023-11-09T01:14:08.760Z,100227.94
2023-11-09T01:16:36.316Z,100219.00
2023-11-09T01:19:04.290Z,100222.00
2023-11-09T01:21:33.305Z,100222.09
2023-11-09T01:24:00.805Z,100225.16
2023-11-09T01:26:28.174Z,100222.41
2023-11-09T01:28:55.429Z,100229.91
2023-11-09T01:31:22.994Z,100217.03
2023-11-09T01:36:35.144Z,100218.53
2023-11-09T01:39:02.517Z,100217.25
2023-11-09T01:41:29.752Z,100209.91
2023-11-09T01:43:57.533Z,100208.81
2023-11-09T01:46:25.173Z,100208.91
2023-11-09T01:48:52.730Z,100217.03
2023-11-09T01:51:20.423Z,100205.63
2023-11-09T01:53:47.999Z,100213.97
2023-11-09T01:56:15.768Z,100206.59
2023-11-09T01:58:43.909Z,100206.13
2023-11-09T02:01:12.937Z,100202.03
2023-11-09T02:03:41.719Z,100202.78
2023-11-09T02:06:14.083Z,100211.50
2023-11-09T02:08:41.632Z,100212.88
2023-11-09T02:11:10.427Z,100204.16
2023-11-09T02:13:38.780Z,100207.94
2023-11-09T02:16:06.574Z,100204.75
2023-11-09T02:18:34.356Z,100203.88
2023-11-09T02:21:01.644Z,100207.34
2023-11-09T02:23:31.033Z,100202.38
2023-11-09T02:25:58.315Z,100201.19
2023-11-09T02:28:25.771Z,100195.66
2023-11-09T02:30:53.323Z,100193.06
2023-11-09T02:33:20.691Z,100189.69
2023-11-09T02:35:48.051Z,100195.66
2023-11-09T02:38:15.576Z,100195.66
2023-11-09T02:40:42.866Z,100198.22
2023-11-09T02:43:10.191Z,100197.41
2023-11-09T02:45:37.750Z,100201.34
2023-11-09T02:48:05.671Z,100201.16
2023-11-09T02:50:33.071Z,100210.66
2023-11-09T02:53:01.015Z,100206.87
2023-11-09T02:55:28.330Z,100207.09
2023-11-09T02:57:55.605Z,100200.38
2023-11-09T03:00:23.206Z,100205.00
2023-11-09T03:02:52.997Z,100204.22
2023-11-09T03:05:23.213Z,100209.56
2023-11-09T03:07:50.920Z,100208.69
2023-11-09T03:10:18.571Z,100210.50
2023-11-09T03:12:46.513Z,100211.06
2023-11-09T03:15:14.025Z,100205.12
2023-11-09T03:17:42.536Z,100211.28
2023-11-09T03:20:10.579Z,100197.63
2023-11-09T03:22:38.434Z,100196.00
2023-11-09T03:25:06.333Z,100204.53
2023-11-09T03:27:34.296Z,100190.28
2023-11-09T03:30:01.924Z,100189.87
2023-11-09T03:32:29.192Z,100201.19
2023-11-09T03:34:56.542Z,100191.44
2023-11-09T03:37:24.093Z,100208.00
2023-11-09T03:39:54.478Z,100200.59
2023-11-09T03:42:21.878Z,100195.00
2023-11-09T03:44:49.423Z,100186.41
2023-11-09T03:47:16.759Z,100191.34
2023-11-09T03:49:44.097Z,100181.22
2023-11-09T03:52:11.839Z,100175.63
2023-11-09T03:54:39.151Z,100176.22
2023-11-09T03:57:06.377Z,100185.19
2023-11-09T03:59:34.288Z,100185.13
2023-11-09T04:02:02.417Z,100186.66
2023-11-09T04:04:30.048Z,100187.34
2023-11-09T04:06:57.402Z,100191.31
2023-11-09T04:09:25.530Z,100194.41
2023-11-09T04:11:53.346Z,100189.56
2023-11-09T04:14:22.024Z,100197.34
2023-11-09T04:16:49.363Z,100193.97
2023-11-09T04:19:17.750Z,100181.03
2023-11-09T04:21:45.613Z,100182.78
2023-11-09T04:24:12.934Z,100191.03
2023-11-09T04:26:43.277Z,100180.53
2023-11-09T04:29:12.763Z,100177.38
2023-11-09T04:31:43.174Z,100172.81
2023-11-09T04:34:11.010Z,100170.84
2023-11-09T04:36:44.109Z,100167.66
2023-11-09T04:39:12.190Z,100171.12
2023-11-09T04:41:40.368Z,100175.81
2023-11-09T04:44:10.760Z,100184.03
2023-11-09T04:46:42.224Z,100178.06
2023-11-09T04:49:09.830Z,100186.28
2023-11-09T04:51:38.906Z,100185.25
2023-11-09T04:54:18.221Z,100175.19
2023-11-09T04:56:48.732Z,100175.78
2023-11-09T04:59:28.150Z,100175.59
2023-11-09T05:02:18.873Z,100187.34
2023-11-09T05:05:05.275Z,100180.53
2023-11-09T05:07:34.112Z,100178.91
2023-11-09T05:10:01.721Z,100194.34
2023-11-09T05:12:29.315Z,100193.34
2023-11-09T05:14:57.317Z,100192.94
2023-11-09T05:17:24.833Z,100189.19
2023-11-09T05:19:52.557Z,100179.13
2023-11-09T05:22:20.432Z,100186.84
2023-11-09T05:24:47.881Z,100183.50
2023-11-09T05:27:15.425Z,100184.66
2023-11-09T05:29:46.763Z,100178.38
2023-11-09T05:32:15.253Z,100173.94
2023-11-09T05:34:43.992Z,100168.59
2023-11-09T05:37:11.318Z,100160.84
2023-11-09T05:39:38.605Z,100155.91
2023-11-09T05:42:06.603Z,100156.38
2023-11-09T05:44:33.864Z,100156.31
2023-11-09T05:47:01.089Z,100154.28
2023-11-09T05:49:28.671Z,100154.59
2023-11-09T05:51:55.993Z,100168.22
2023-11-09T05:54:23.497Z,100174.38
2023-11-09T05:56:50.984Z,100174.91
2023-11-09T05:59:18.716Z,100172.16
2023-11-09T06:01:46.322Z,100168.22
2023-11-09T06:04:14.832Z,100173.19
2023-11-09T06:06:44.998Z,100175.72
2023-11-09T06:09:12.326Z,100177.25
2023-11-09T06:11:39.845Z,100170.81
2023-11-09T06:14:08.414Z,100173.00
2023-11-09T06:16:35.795Z,100179.00
2023-11-09T06:19:03.735Z,100182.38
2023-11-09T06:21:31.253Z,100190.63
2023-11-09T06:23:58.517Z,100194.13
2023-11-09T06:26:26.327Z,100185.69
2023-11-09T06:28:54.410Z,100199.56
2023-11-09T06:31:23.348Z,100196.97
2023-11-09T06:33:55.514Z,100191.25
2023-11-09T06:36:23.382Z,100191.03
2023-11-09T06:38:51.104Z,100189.44
2023-11-09T06:41:18.395Z,100197.09
2023-11-09T06:43:45.738Z,100197.19
2023-11-09T06:46:23.069Z,100198.50
2023-11-09T06:48:50.451Z,100199.59
2023-11-09T06:51:18.494Z,100204.72
2023-11-09T06:53:45.759Z,100202.16
2023-11-09T06:56:13.106Z,100205.06
2023-11-09T06:58:40.665Z,100198.81
2023-11-09T07:01:08.836Z,100199.41
2023-11-09T07:03:36.586Z,100199.09
2023-11-09T07:06:04.289Z,100204.97
2023-11-09T07:08:31.615Z,100209.03
2023-11-09T07:11:00.523Z,100214.47
2023-11-09T07:13:28.033Z,100208.72
2023-11-09T07:15:55.278Z,100204.53
2023-11-09T07:18:22.678Z,100193.06
2023-11-09T07:20:59.048Z,100197.78
2023-11-09T07:23:35.005Z,100196.03
2023-11-09T07:26:02.553Z,100190.97
2023-11-09T07:28:30.551Z,100189.81
2023-11-09T07:30:57.842Z,100195.16
2023-11-09T07:33:25.908Z,100188.22
2023-11-09T07:35:53.305Z,100189.56
2023-11-09T07:38:20.539Z,100185.16
2023-11-09T07:40:48.089Z,100188.47
2023-11-09T07:43:15.482Z,100181.28
2023-11-09T07:45:42.951Z,100179.97
2023-11-09T07:48:10.634Z,100178.63
2023-11-09T07:50:39.427Z,100180.59
2023-11-09T07:53:07.196Z,100170.09
2023-11-09T07:55:34.740Z,100175.63
2023-11-09T07:58:05.732Z,100168.66
2023-11-09T08:00:33.046Z,100166.19
2023-11-09T08:03:00.617Z,100175.16
2023-11-09T08:05:28.008Z,100170.25
2023-11-09T08:07:56.010Z,100164.22
2023-11-09T08:10:25.447Z,100160.34
2023-11-09T08:12:53.900Z,100167.22
2023-11-09T08:15:21.257Z,100158.56
2023-11-09T08:17:48.960Z,100160.97
2023-11-09T08:20:17.066Z,100145.59
2023-11-09T08:22:46.137Z,100145.81
2023-11-09T08:25:19.082Z,100149.88
2023-11-09T08:27:47.643Z,100150.94
2023-11-09T08:30:17.067Z,100146.91
2023-11-09T08:32:48.779Z,100149.41
2023-11-09T08:35:17.125Z,100144.41
2023-11-09T08:37:44.654Z,100138.38
2023-11-09T08:40:19.270Z,100138.78
2023-11-09T08:42:49.521Z,100132.91
2023-11-09T08:45:19.277Z,100140.75
2023-11-09T08:47:47.758Z,100134.25
2023-11-09T08:50:15.053Z,100135.19
2023-11-09T08:52:42.453Z,100141.50
2023-11-09T08:55:10.551Z,100131.56
2023-11-09T08:57:38.896Z,100130.94
2023-11-09T09:00:07.397Z,100125.50
2023-11-09T09:02:35.843Z,100137.81
2023-11-09T09:05:03.232Z,100127.63
2023-11-09T09:07:31.203Z,100121.56
2023-11-09T09:10:00.720Z,100123.16
2023-11-09T09:12:27.952Z,100124.06
2023-11-09T09:14:55.638Z,100125.53
2023-11-09T09:17:26.787Z,100119.38
2023-11-09T09:19:57.422Z,100120.22
2023-11-09T09:22:25.097Z,100122.72
2023-11-09T09:24:52.343Z,100115.34
2023-11-09T09:27:19.610Z,100104.66
2023-11-09T09:29:47.466Z,100101.22
2023-11-09T09:32:14.833Z,100099.16
2023-11-09T09:34:42.271Z,100099.16
2023-11-09T09:37:11.960Z,100104.38
2023-11-09T09:39:39.256Z,100090.38
2023-11-09T09:42:06.761Z,100094.66
2023-11-09T09:44:34.822Z,100099.59
2023-11-09T09:47:03.385Z,100097.69
2023-11-09T09:49:30.651Z,100087.63
2023-11-09T09:52:01.311Z,100086.78
2023-11-09T09:54:28.816Z,100090.66
2023-11-09T09:56:56.057Z,100085.38
2023-11-09T09:59:24.231Z,100082.56
2023-11-09T10:01:51.637Z,100077.81
2023-11-09T10:04:19.961Z,100074.09
2023-11-09T10:06:47.367Z,100071.91
2023-11-09T10:09:16.188Z,100069.84
2023-11-09T10:11:44.204Z,100074.16
2023-11-09T10:14:12.799Z,100072.84
2023-11-09T10:16:42.314Z,100068.56
2023-11-09T10:19:10.749Z,100064.53
2023-11-09T10:21:38.466Z,100054.78
2023-11-09T10:24:07.424Z,100057.56
2023-11-09T10:26:42.211Z,100048.50
2023-11-09T10:29:16.206Z,100052.38
2023-11-09T10:31:43.946Z,100045.09
2023-11-09T10:34:16.608Z,100029.59
2023-11-09T10:36:47.677Z,100034.44
2023-11-09T10:39:19.444Z,100033.87
2023-11-09T10:41:55.053Z,100035.78
2023-11-09T10:44:25.914Z,100030.69
2023-11-09T10:46:57.096Z,100013.34
2023-11-09T10:49:31.927Z,100017.53
2023-11-09T10:52:00.455Z,100007.75
2023-11-09T10:54:30.477Z,100008.59
2023-11-09T10:56:58.133Z,100002.19
2023-11-09T10:59:25.965Z,100002.59
2023-11-09T11:01:56.764Z,99999.84
2023-11-09T11:04:26.670Z,99991.63
2023-11-09T11:06:57.643Z,99995.59
2023-11-09T11:09:28.105Z,99982.03
2023-11-09T11:12:02.819Z,99987.16
2023-11-09T11:14:30.887Z,99992.87
2023-11-09T11:17:20.322Z,99982.88
2023-11-09T11:19:50.418Z,99987.03
2023-11-09T11:22:36.860Z,99978.16
2023-11-09T11:25:08.129Z,99983.56
2023-11-09T11:27:38.488Z,99978.78
2023-11-09T11:30:15.737Z,99973.69
2023-11-09T11:32:47.015Z,99982.22
2023-11-09T11:35:15.830Z,99978.13
2023-11-09T11:37:44.835Z,99979.69
2023-11-09T11:40:18.550Z,99981.75
2023-11-09T11:42:47.224Z,99956.06
2023-11-09T11:45:15.616Z,99960.91
2023-11-09T11:47:42.969Z,99971.06
2023-11-09T11:50:11.577Z,99968.28
2023-11-09T11:52:39.292Z,99959.59
2023-11-09T11:55:11.346Z,99957.06
2023-11-09T11:57:57.934Z,99951.72
2023-11-09T12:00:35.558Z,99955.78
2023-11-09T12:03:05.369Z,99944.50
2023-11-09T12:05:32.778Z,99937.16
2023-11-09T12:08:01.145Z,99935.19
2023-11-09T12:10:29.218Z,99945.69
2023-11-09T12:12:57.390Z,99936.56
2023-11-09T12:15:31.448Z,99937.91
2023-11-09T12:17:59.015Z,99928.22
2023-11-09T12:20:27.020Z,99939.16
2023-11-09T12:22:56.298Z,99919.97
2023-11-09T12:25:27.640Z,99926.09
2023-11-09T12:28:01.387Z,99919.94
2023-11-09T12:30:29.984Z,99925.97
2023-11-09T12:32:58.151Z,99920.88
2023-11-09T12:35:25.455Z,99922.66
2023-11-09T12:38:00.836Z,99911.44
2023-11-09T12:40:41.741Z,99915.44
2023-11-09T12:43:09.347Z,99906.44
2023-11-09T12:45:39.606Z,99907.94
2023-11-09T12:48:06.985Z,99902.09
2023-11-09T12:50:35.914Z,99894.56
2023-11-09T12:53:03.985Z,99893.09
2023-11-09T12:55:33.455Z,99883.66
2023-11-09T12:58:01.607Z,99891.28
2023-11-09T13:00:31.406Z,99876.94
2023-11-09T13:03:03.182Z,99869.53
2023-11-09T13:05:34.172Z,99868.25
2023-11-09T13:08:09.757Z,99869.88
2023-11-09T13:10:39.827Z,99875.56
2023-11-09T13:13:24.192Z,99869.53
2023-11-09T13:15:52.040Z,99866.25
2023-11-09T13:18:29.643Z,99868.03
2023-11-09T13:20:57.487Z,99871.94
2023-11-09T13:23:33.814Z,99867.94
2023-11-09T13:26:02.491Z,99865.78
2023-11-09T13:28:30.862Z,99870.81
2023-11-09T13:31:05.010Z,99870.31
2023-11-09T13:33:40.714Z,99864.72
2023-11-09T13:36:14.758Z,99873.81
2023-11-09T13:38:58.307Z,99859.75
2023-11-09T13:41:42.593Z,99860.47
2023-11-09T13:44:12.546Z,99868.03
2023-11-09T13:46:42.489Z,99867.16
2023-11-09T13:49:28.922Z,99854.91
2023-11-09T13:52:02.318Z,99868.69
2023-11-09T13:54:33.446Z,99869.16
2023-11-09T13:57:00.723Z,99869.91
2023-11-09T13:59:32.092Z,99859.16
2023-11-09T14:02:00.076Z,99862.09
2023-11-09T14:04:31.762Z,99847.47
2023-11-09T14:06:59.968Z,99858.00
2023-11-09T14:09:36.382Z,99847.91
2023-11-09T14:12:10.339Z,99849.31
2023-11-09T14:14:49.501Z,99849.63
2023-11-09T14:17:18.654Z,99853.47
2023-11-09T14:19:56.175Z,99838.53
2023-11-09T14:22:24.378Z,99848.06
2023-11-09T14:24:54.729Z,99835.22
2023-11-09T14:27:24.177Z,99815.09
2023-11-09T14:29:54.330Z,99822.31
2023-11-09T14:32:25.486Z,99829.31
2023-11-09T14:34:55.211Z,99822.59
2023-11-09T14:37:23.920Z,99832.38
2023-11-09T14:40:10.444Z,99832.97
2023-11-09T14:42:38.049Z,99828.34
2023-11-09T14:45:07.205Z,99819.25
2023-11-09T14:47:42.837Z,99822.78
2023-11-09T14:50:12.474Z,99818.63
2023-11-09T14:52:50.793Z,99821.91
2023-11-09T14:55:20.405Z,99812.28
2023-11-09T14:57:48.905Z,99809.66
2023-11-09T15:00:24.455Z,99815.00
2023-11-09T15:02:52.189Z,99808.53
2023-11-09T15:05:26.313Z,99810.16
2023-11-09T15:07:55.938Z,99810.72
2023-11-09T15:10:26.454Z,99805.06
2023-11-09T15:12:54.891Z,99798.19
2023-11-09T15:15:22.409Z,99798.41
2023-11-09T15:17:50.181Z,99794.00
2023-11-09T15:20:23.748Z,99799.34
2023-11-09T15:22:57.285Z,99793.50
2023-11-09T15:25:25.752Z,99795.87
2023-11-09T15:27:53.373Z,99797.25
2023-11-09T15:30:26.116Z,99789.66
2023-11-09T15:32:55.042Z,99798.47
2023-11-09T15:35:22.709Z,99804.97
2023-11-09T15:37:55.424Z,99806.22
2023-11-09T15:41:09.314Z,99804.66
2023-11-09T15:43:11.922Z,99802.16
2023-11-09T15:45:39.871Z,99801.72
2023-11-09T15:48:09.199Z,99803.66
2023-11-09T15:50:37.921Z,99800.41
2023-11-09T15:53:06.781Z,99798.72
2023-11-09T15:55:35.651Z,99797.31
2023-11-09T15:58:10.805Z,99791.19
2023-11-09T16:00:39.601Z,99798.81
2023-11-09T16:03:07.701Z,99794.31
2023-11-09T16:05:35.077Z,99799.53
2023-11-09T16:08:06.197Z,99794.31
2023-11-09T16:10:37.276Z,99794.28
2023-11-09T16:13:05.582Z,99795.87
2023-11-09T16:15:32.836Z,99791.78
2023-11-09T16:18:01.510Z,99798.53
2023-11-09T16:20:33.851Z,99797.44
2023-11-09T16:23:06.789Z,99803.66
2023-11-09T16:25:34.886Z,99803.66
2023-11-09T16:28:08.377Z,99803.87
2023-11-09T16:30:38.802Z,99801.88
2023-11-09T16:33:09.525Z,99800.41
2023-11-09T16:35:37.630Z,99794.22
2023-11-09T16:38:05.879Z,99798.47
2023-11-09T16:40:36.685Z,99800.34
2023-11-09T16:43:04.271Z,99790.44
2023-11-09T16:45:31.827Z,99788.22
2023-11-09T16:47:59.411Z,99793.06
2023-11-09T16:50:27.453Z,99803.03
2023-11-09T16:52:54.907Z,99795.16
2023-11-09T16:55:22.574Z,99796.50
2023-11-09T16:57:50.410Z,99789.25
2023-11-09T17:00:22.943Z,99791.00
2023-11-09T17:02:50.704Z,99799.97
2023-11-09T17:05:18.098Z,99799.75
2023-11-09T17:07:47.159Z,99791.00
2023-11-09T17:10:15.722Z,99803.84
2023-11-09T17:12:43.834Z,99804.13
2023-11-09T17:15:13.199Z,99796.94
2023-11-09T17:17:42.736Z,99801.03
2023-11-09T17:20:11.778Z,99793.41
2023-11-09T17:22:39.831Z,99793.81
2023-11-09T17:25:09.262Z,99796.75
2023-11-09T17:27:37.219Z,99789.69
2023-11-09T17:30:10.473Z,99780.28
2023-11-09T17:32:40.365Z,99787.84
2023-11-09T17:35:09.688Z,99777.72
2023-11-09T17:37:38.057Z,99790.09
2023-11-09T17:40:12.666Z,99781.44
2023-11-09T17:42:41.858Z,99783.88
2023-11-09T17:45:11.392Z,99775.47
2023-11-09T17:47:39.563Z,99776.06
2023-11-09T17:50:12.322Z,99773.28
2023-11-09T17:52:42.262Z,99764.94
2023-11-09T17:55:13.406Z,99772.41
2023-11-09T17:57:42.549Z,99765.16
2023-11-09T18:00:16.190Z,99772.53
2023-11-09T18:02:47.031Z,99769.94
2023-11-09T18:05:16.097Z,99771.97
2023-11-09T18:07:45.737Z,99764.06
2023-11-09T18:10:14.115Z,99767.06
2023-11-09T18:12:43.543Z,99762.19
2023-11-09T18:15:12.558Z,99771.28
2023-11-09T18:17:41.406Z,99761.94
2023-11-09T18:20:14.031Z,99769.75
2023-11-09T18:22:44.553Z,99769.56
2023-11-09T18:25:12.990Z,99765.72
2023-11-09T18:27:41.207Z,99761.84
2023-11-09T18:30:12.158Z,99754.75
2023-11-09T18:32:39.924Z,99757.63
2023-11-09T18:35:08.177Z,99758.81
2023-11-09T18:37:36.406Z,99762.25
2023-11-09T18:40:06.119Z,99762.78
2023-11-09T18:42:34.115Z,99755.63
2023-11-09T18:45:02.997Z,99764.75
2023-11-09T18:47:32.910Z,99755.91
2023-11-09T18:52:34.188Z,99756.03
2023-11-09T18:55:03.915Z,99751.53
2023-11-09T18:57:33.091Z,99746.75
2023-11-09T19:00:02.589Z,99741.22
2023-11-09T19:02:31.423Z,99738.25
2023-11-09T19:05:00.702Z,99734.78
2023-11-09T19:07:30.875Z,99738.62
2023-11-09T19:10:02.241Z,99736.50
2023-11-09T19:12:35.326Z,99726.78
2023-11-09T19:15:05.528Z,99733.25
2023-11-09T19:17:35.614Z,99730.75
2023-11-09T19:20:09.370Z,99732.09
2023-11-09T19:22:41.904Z,99727.09
2023-11-09T19:25:11.922Z,99727.25
2023-11-09T19:27:44.608Z,99726.63
2023-11-09T19:30:21.474Z,99721.78
2023-11-09T19:32:51.053Z,99720.25
2023-11-09T19:35:21.706Z,99719.31
2023-11-09T19:37:51.068Z,99708.78
2023-11-09T19:40:21.125Z,99710.19
2023-11-09T19:42:50.557Z,99710.63
2023-11-09T19:45:31.467Z,99704.69
2023-11-09T19:48:03.482Z,99713.38
2023-11-09T19:50:33.038Z,99710.25
2023-11-09T19:53:03.563Z,99709.41
2023-11-09T19:55:32.849Z,99710.84
2023-11-09T19:58:06.485Z,99708.19
2023-11-09T20:00:36.302Z,99709.41
2023-11-09T20:03:07.957Z,99714.13
2023-11-09T20:05:39.540Z,99719.84
2023-11-09T20:08:09.132Z,99717.44
2023-11-09T20:10:38.709Z,99706.38
2023-11-09T20:13:09.460Z,99712.19
2023-11-09T20:15:38.135Z,99710.84
2023-11-09T20:18:06.758Z,99711.84
2023-11-09T20:20:35.893Z,99709.31
2023-11-09T20:23:07.069Z,99697.88
2023-11-09T20:25:39.222Z,99690.53
2023-11-09T20:28:08.839Z,99689.69
2023-11-09T20:30:38.147Z,99687.25
2023-11-09T20:33:08.153Z,99674.56
2023-11-09T20:35:37.083Z,99675.53
2023-11-09T20:38:08.711Z,99680.75
2023-11-09T20:40:37.236Z,99673.34
2023-11-09T20:43:06.121Z,99675.88
2023-11-09T20:45:34.913Z,99671.84
2023-11-09T20:48:05.029Z,99666.69
2023-11-09T20:50:34.107Z,99671.47
2023-11-09T20:53:02.643Z,99669.91
2023-11-09T20:55:33.761Z,99669.19
2023-11-09T20:58:03.327Z,99658.66
2023-11-09T21:00:32.945Z,99665.13
2023-11-09T21:03:01.066Z,99664.66
2023-11-09T21:05:29.355Z,99657.94
2023-11-09T21:08:00.035Z,99659.50
2023-11-09T21:10:28.343Z,99651.22
2023-11-09T21:12:56.041Z,99655.91
2023-11-09T21:15:26.729Z,99658.59
2023-11-09T21:17:55.008Z,99661.06
2023-11-09T21:20:23.205Z,99654.66
2023-11-09T21:22:50.525Z,99650.91
2023-11-09T21:25:17.776Z,99648.56
2023-11-09T21:27:47.000Z,99641.59
2023-11-09T21:30:17.796Z,99643.81
2023-11-09T21:32:46.141Z,99654.94
2023-11-09T21:35:16.352Z,99643.47
2023-11-09T21:37:43.791Z,99644.25
2023-11-09T21:40:15.380Z,99634.56
2023-11-09T21:42:43.099Z,99638.47
2023-11-09T21:45:14.199Z,99634.09
2023-11-09T21:47:42.039Z,99633.91
2023-11-09T21:50:11.377Z,99629.13
2023-11-09T21:52:39.320Z,99632.34
2023-11-09T21:55:10.271Z,99641.38
2023-11-09T21:57:40.683Z,99634.34
2023-11-09T22:00:18.987Z,99633.72
2023-11-09T22:02:47.966Z,99634.25
2023-11-09T22:05:16.180Z,99633.44
2023-11-09T22:07:43.425Z,99636.44
2023-11-09T22:10:12.656Z,99633.22
2023-11-09T22:12:40.786Z,99639.56
2023-11-09T22:15:10.176Z,99628.31
2023-11-09T22:17:37.781Z,99628.50
2023-11-09T22:20:08.488Z,99638.50
2023-11-09T22:22:35.715Z,99631.56
2023-11-09T22:25:03.941Z,99624.28
2023-11-09T22:27:31.368Z,99628.06
2023-11-09T22:29:58.963Z,99630.03
2023-11-09T22:32:27.061Z,99628.84
2023-11-09T22:34:55.198Z,99633.91
2023-11-09T22:37:22.865Z,99627.50
2023-11-09T22:39:50.422Z,99626.38
2023-11-09T22:42:17.772Z,99618.25
2023-11-09T22:44:45.120Z,99626.63
2023-11-09T22:47:13.837Z,99624.78
2023-11-09T22:49:41.137Z,99626.22
2023-11-09T22:52:08.673Z,99620.69
2023-11-09T22:54:36.596Z,99624.62
2023-11-09T22:57:07.188Z,99614.50
2023-11-09T22:59:34.680Z,99614.06
2023-11-09T23:02:02.489Z,99608.78
2023-11-09T23:04:31.731Z,99613.31
2023-11-09T23:06:59.056Z,99607.09
2023-11-09T23:09:27.482Z,99601.91
2023-11-09T23:11:54.916Z,99596.06
2023-11-09T23:14:22.244Z,99600.59
2023-11-09T23:16:50.033Z,99596.13
2023-11-09T23:19:17.369Z,99593.72
2023-11-09T23:21:44.829Z,99592.72
2023-11-09T23:24:12.590Z,99587.41
2023-11-09T23:26:39.948Z,99591.41
2023-11-09T23:29:07.257Z,99588.00
2023-11-09T23:31:34.877Z,99592.03
2023-11-09T23:34:02.584Z,99583.31
2023-11-09T23:36:30.072Z,99583.41
2023-11-09T23:38:57.689Z,99579.88
2023-11-09T23:41:24.994Z,99574.81
2023-11-09T23:43:52.213Z,99577.41
2023-11-09T23:46:19.758Z,99578.22
2023-11-09T23:48:47.490Z,99582.09
2023-11-09T23:51:17.798Z,99572.69
2023-11-09T23:53:45.367Z,99575.56
2023-11-09T23:56:13.702Z,99578.34
2023-11-09T23:58:40.920Z,99573.25
